createdAt,value
2018-03-14T00:01:56.969Z,24.80
2018-03-14T00:04:25.075Z,25.50
2018-03-14T00:06:54.122Z,25.17
2018-03-14T00:09:22.205Z,24.47
2018-03-14T00:11:50.290Z,24.83
2018-03-14T00:14:18.387Z,24.10
2018-03-14T00:16:46.472Z,24.83
2018-03-14T00:19:14.590Z,23.43
2018-03-14T00:21:42.719Z,23.40
2018-03-14T00:24:10.836Z,24.07
2018-03-14T00:26:40.923Z,24.73
2018-03-14T00:29:10.438Z,21.53
2018-03-14T00:31:40.389Z,21.63
2018-03-14T00:34:09.388Z,22.23
2018-03-14T00:36:37.485Z,24.17
2018-03-14T00:39:06.745Z,22.67
2018-03-14T00:41:35.955Z,21.90
2018-03-14T00:44:04.085Z,23.70
2018-03-14T00:46:32.369Z,22.10
2018-03-14T00:49:00.475Z,24.27
2018-03-14T00:51:29.396Z,21.70
2018-03-14T00:53:57.707Z,22.77
2018-03-14T00:56:27.428Z,22.87
2018-03-14T00:58:55.520Z,22.30
2018-03-14T01:01:23.627Z,22.03
2018-03-14T01:03:52.502Z,21.83
2018-03-14T01:06:20.612Z,23.17
2018-03-14T01:08:49.394Z,23.07
2018-03-14T01:11:19.038Z,22.83
2018-03-14T01:13:47.231Z,21.40
2018-03-14T01:16:15.555Z,22.97
2018-03-14T01:18:45.981Z,21.10
2018-03-14T01:21:14.158Z,22.70
2018-03-14T01:23:42.273Z,23.80
2018-03-14T01:26:11.110Z,24.30
2018-03-14T01:28:39.229Z,23.33
2018-03-14T01:31:08.713Z,22.73
2018-03-14T01:33:36.819Z,23.70
2018-03-14T01:36:04.903Z,24.03
2018-03-14T01:38:33.556Z,24.20
2018-03-14T01:41:01.653Z,24.90
2018-03-14T01:43:29.741Z,25.83
2018-03-14T01:45:57.854Z,24.83
2018-03-14T01:48:25.959Z,24.23
2018-03-14T01:50:54.539Z,25.10
2018-03-14T01:53:28.619Z,25.17
2018-03-14T01:55:56.735Z,25.97
2018-03-14T01:58:24.863Z,25.47
2018-03-14T02:00:52.956Z,26.77
2018-03-14T02:03:21.062Z,25.70
2018-03-14T02:05:49.194Z,26.40
2018-03-14T02:08:17.297Z,26.03
2018-03-14T02:10:46.997Z,28.27
2018-03-14T02:13:15.873Z,27.57
2018-03-14T02:15:43.976Z,27.90
2018-03-14T02:18:12.097Z,26.00
2018-03-14T02:20:40.886Z,26.87
2018-03-14T02:23:08.982Z,28.10
2018-03-14T02:25:37.095Z,28.30
2018-03-14T02:28:05.199Z,29.03
2018-03-14T02:30:33.297Z,28.27
2018-03-14T02:33:08.193Z,27.60
2018-03-14T02:35:37.445Z,27.10
2018-03-14T02:38:05.547Z,27.13
2018-03-14T02:40:33.672Z,28.17
2018-03-14T02:43:04.370Z,28.70
2018-03-14T02:45:33.970Z,29.60
2018-03-14T02:48:02.278Z,27.00
2018-03-14T02:50:34.354Z,28.90
2018-03-14T02:53:02.449Z,28.07
2018-03-14T02:55:31.022Z,30.77
2018-03-14T02:57:59.131Z,28.50
2018-03-14T03:00:27.233Z,29.80
2018-03-14T03:02:55.335Z,29.90
2018-03-14T03:05:23.555Z,28.30
2018-03-14T03:07:53.238Z,30.60
2018-03-14T03:10:21.399Z,30.03
2018-03-14T03:12:49.635Z,30.17
2018-03-14T03:15:18.943Z,29.47
2018-03-14T03:17:47.807Z,30.20
2018-03-14T03:20:17.371Z,30.87
2018-03-14T03:22:46.313Z,29.47
2018-03-14T03:25:14.479Z,30.90
2018-03-14T03:27:42.583Z,30.37
2018-03-14T03:30:14.532Z,32.17
2018-03-14T03:32:44.187Z,29.20
2018-03-14T03:35:14.128Z,28.73
2018-03-14T03:37:44.155Z,31.37
2018-03-14T03:40:12.502Z,32.00
2018-03-14T03:42:40.587Z,32.60
2018-03-14T03:45:08.697Z,31.60
2018-03-14T03:47:39.363Z,32.57
2018-03-14T03:50:07.452Z,30.67
2018-03-14T03:52:35.535Z,32.50
2018-03-14T03:55:03.624Z,32.27
2018-03-14T03:57:31.975Z,31.50
2018-03-14T04:00:00.390Z,31.37
2018-03-14T04:02:28.463Z,33.83
2018-03-14T04:04:56.919Z,31.00
2018-03-14T04:07:25.728Z,31.30
2018-03-14T04:09:53.822Z,31.17
2018-03-14T04:12:22.100Z,31.47
2018-03-14T04:14:50.186Z,29.67
2018-03-14T04:17:18.291Z,32.80
2018-03-14T04:19:46.372Z,34.10
2018-03-14T04:22:15.904Z,34.10
2018-03-14T04:24:47.489Z,31.13
2018-03-14T04:27:15.607Z,30.63
2018-03-14T04:29:43.706Z,30.17
2018-03-14T04:32:11.789Z,29.77
2018-03-14T04:34:39.901Z,30.33
2018-03-14T04:37:09.756Z,29.93
2018-03-14T04:39:39.708Z,30.90
2018-03-14T04:42:08.994Z,29.87
2018-03-14T04:44:38.586Z,31.60
2018-03-14T04:47:08.994Z,31.37
2018-03-14T04:49:37.880Z,33.93
2018-03-14T04:52:06.073Z,31.47
2018-03-14T04:54:34.171Z,32.40
2018-03-14T04:57:03.860Z,32.73
2018-03-14T04:59:36.533Z,32.47
2018-03-14T05:02:04.633Z,34.37
2018-03-14T05:04:32.966Z,32.80
2018-03-14T05:07:02.840Z,33.70
2018-03-14T05:09:30.938Z,34.80
2018-03-14T05:11:59.038Z,36.90
2018-03-14T05:14:27.917Z,37.00
2018-03-14T05:16:56.010Z,36.30
2018-03-14T05:19:24.124Z,36.43
2018-03-14T05:21:52.264Z,36.03
2018-03-14T05:24:21.151Z,37.80
2018-03-14T05:26:50.456Z,37.30
2018-03-14T05:29:19.528Z,37.30
2018-03-14T05:31:47.619Z,36.73
2018-03-14T05:34:16.300Z,38.90
2018-03-14T05:36:44.396Z,38.40
2018-03-14T05:39:12.497Z,38.50
2018-03-14T05:41:40.599Z,38.10
2018-03-14T05:44:09.502Z,38.93
2018-03-14T05:46:37.590Z,36.50
2018-03-14T05:49:05.722Z,37.87
2018-03-14T05:51:34.430Z,39.63
2018-03-14T05:54:02.872Z,38.63
2018-03-14T05:56:30.980Z,38.73
2018-03-14T05:58:59.455Z,39.40
2018-03-14T06:01:28.370Z,40.23
2018-03-14T06:03:56.474Z,36.83
2018-03-14T06:06:24.585Z,40.40
2018-03-14T06:08:53.572Z,39.37
2018-03-14T06:11:21.672Z,39.20
2018-03-14T06:13:49.958Z,39.30
2018-03-14T06:16:18.053Z,38.87
2018-03-14T06:18:47.019Z,39.37
2018-03-14T06:21:15.567Z,38.73
2018-03-14T06:23:44.267Z,36.97
2018-03-14T06:26:12.352Z,39.33
2018-03-14T06:28:41.367Z,37.23
2018-03-14T06:31:11.604Z,41.83
2018-03-14T06:33:40.563Z,39.00
2018-03-14T06:36:08.643Z,39.60
2018-03-14T06:38:36.793Z,39.83
2018-03-14T06:41:05.948Z,39.33
2018-03-14T06:43:34.896Z,40.10
2018-03-14T06:46:04.638Z,38.53
2018-03-14T06:48:34.200Z,40.77
2018-03-14T06:51:03.656Z,38.77
2018-03-14T06:53:31.740Z,38.90
2018-03-14T06:55:59.959Z,41.07
2018-03-14T07:01:55.964Z,45.40
2018-03-14T07:07:34.352Z,43.33
2018-03-14T07:10:02.444Z,41.60
2018-03-14T07:12:30.580Z,45.10
2018-03-14T07:14:58.713Z,41.60
2018-03-14T07:17:26.943Z,43.27
2018-03-14T07:19:55.919Z,39.37
2018-03-14T07:22:24.121Z,38.60
2018-03-14T07:24:52.788Z,38.37
2018-03-14T07:27:20.861Z,40.33
2018-03-14T07:29:49.940Z,38.30
2018-03-14T07:32:19.657Z,40.10
2018-03-14T07:34:48.396Z,38.50
2018-03-14T07:37:16.616Z,41.80
2018-03-14T07:39:47.919Z,40.50
2018-03-14T07:42:20.125Z,41.03
2018-03-14T07:44:48.248Z,46.53
2018-03-14T07:47:16.443Z,42.57
2018-03-14T07:49:45.529Z,41.87
2018-03-14T07:52:13.856Z,35.73
2018-03-14T07:54:42.966Z,37.53
2018-03-14T07:57:14.451Z,37.50
2018-03-14T07:59:42.784Z,36.83
2018-03-14T08:02:10.881Z,32.40
2018-03-14T08:04:39.739Z,29.60
2018-03-14T08:07:07.831Z,30.63
2018-03-14T08:09:35.934Z,30.03
2018-03-14T08:12:05.004Z,32.17
2018-03-14T08:14:33.206Z,31.40
2018-03-14T08:17:01.355Z,28.77
2018-03-14T08:19:30.403Z,27.23
2018-03-14T08:21:58.544Z,23.13
2018-03-14T08:24:27.419Z,36.37
2018-03-14T08:26:55.638Z,31.20
2018-03-14T08:29:23.733Z,27.67
2018-03-14T08:31:51.827Z,15.90
2018-03-14T08:34:20.090Z,14.10
2018-03-14T08:36:48.188Z,13.30
2018-03-14T08:39:16.359Z,13.10
2018-03-14T08:41:44.633Z,13.37
2018-03-14T08:44:13.600Z,14.00
2018-03-14T08:46:41.927Z,14.83
2018-03-14T08:49:11.000Z,14.17
2018-03-14T08:51:39.932Z,16.93
2018-03-14T08:54:08.172Z,16.27
2018-03-14T08:56:37.276Z,25.27
2018-03-14T08:59:06.111Z,27.30
2018-03-14T09:01:37.108Z,26.33
2018-03-14T09:04:07.706Z,27.47
2018-03-14T09:06:36.758Z,28.90
2018-03-14T09:09:05.629Z,26.40
2018-03-14T09:11:34.736Z,28.40
2018-03-14T09:14:02.896Z,28.30
2018-03-14T09:16:31.118Z,29.40
2018-03-14T09:18:59.380Z,28.17
2018-03-14T09:21:28.290Z,29.90
2018-03-14T09:23:56.597Z,30.63
2018-03-14T09:26:26.401Z,31.20
2018-03-14T09:28:54.590Z,31.13
2018-03-14T09:31:24.755Z,29.83
2018-03-14T09:33:52.866Z,25.43
2018-03-14T09:36:21.319Z,29.50
2018-03-14T09:38:49.591Z,26.37
2018-03-14T09:41:20.551Z,26.27
2018-03-14T09:43:48.745Z,24.50
2018-03-14T09:46:17.362Z,26.50
2018-03-14T09:48:45.491Z,24.50
2018-03-14T09:51:13.931Z,24.30
2018-03-14T09:53:42.890Z,23.37
2018-03-14T09:56:11.835Z,22.90
2018-03-14T09:58:39.937Z,22.53
2018-03-14T10:01:08.032Z,21.50
2018-03-14T10:03:36.173Z,22.60
2018-03-14T10:06:04.552Z,21.10
2018-03-14T10:08:34.583Z,22.13
2018-03-14T10:11:02.932Z,24.17
2018-03-14T10:13:31.035Z,22.13
2018-03-14T10:15:59.208Z,24.40
2018-03-14T10:18:28.147Z,21.33
2018-03-14T10:20:56.284Z,14.30
2018-03-14T10:23:24.370Z,13.70
2018-03-14T10:25:52.893Z,15.00
2018-03-14T10:28:21.015Z,16.97
2018-03-14T10:30:49.100Z,14.00
2018-03-14T10:33:17.286Z,16.90
2018-03-14T10:35:45.359Z,17.53
2018-03-14T10:38:13.447Z,14.93
2018-03-14T10:40:42.335Z,18.20
2018-03-14T10:43:10.452Z,17.70
2018-03-14T10:45:38.590Z,16.27
2018-03-14T10:48:06.680Z,16.70
2018-03-14T10:50:35.024Z,15.10
2018-03-14T10:53:03.124Z,15.30
2018-03-14T10:55:31.211Z,17.40
2018-03-14T10:57:59.341Z,16.13
2018-03-14T11:00:27.443Z,16.60
2018-03-14T11:03:01.436Z,15.07
2018-03-14T11:05:30.608Z,14.30
2018-03-14T11:07:58.723Z,12.40
2018-03-14T11:10:26.819Z,11.83
2018-03-14T11:12:54.893Z,13.37
2018-03-14T11:15:23.006Z,14.53
2018-03-14T11:17:51.108Z,12.60
2018-03-14T11:20:19.215Z,14.87
2018-03-14T11:22:47.317Z,14.97
2018-03-14T11:25:15.481Z,13.00
2018-03-14T11:27:44.895Z,12.13
2018-03-14T11:30:13.036Z,13.17
2018-03-14T11:32:41.116Z,12.43
2018-03-14T11:35:09.266Z,12.77
2018-03-14T11:37:37.939Z,14.10
2018-03-14T11:40:06.268Z,15.80
2018-03-14T11:42:35.176Z,14.20
2018-03-14T11:45:05.320Z,14.17
2018-03-14T11:47:33.656Z,14.50
2018-03-14T11:50:02.736Z,14.00
2018-03-14T11:52:30.990Z,16.00
2018-03-14T11:54:59.121Z,15.17
2018-03-14T11:57:27.220Z,16.37
2018-03-14T11:59:55.337Z,14.73
2018-03-14T12:02:23.450Z,15.63
2018-03-14T12:04:52.503Z,16.73
2018-03-14T12:07:20.657Z,15.57
2018-03-14T12:09:49.717Z,15.57
2018-03-14T12:12:17.898Z,15.33
2018-03-14T12:14:46.033Z,16.83
2018-03-14T12:17:15.217Z,14.40
2018-03-14T12:19:43.381Z,13.07
2018-03-14T12:22:17.039Z,14.57
2018-03-14T12:24:45.173Z,13.90
2018-03-14T12:27:13.265Z,16.00
2018-03-14T12:29:41.355Z,16.30
2018-03-14T12:32:09.504Z,15.10
2018-03-14T12:34:37.555Z,13.53
2018-03-14T12:37:05.660Z,14.50
2018-03-14T12:39:33.776Z,14.50
2018-03-14T12:42:01.966Z,14.57
2018-03-14T12:44:31.226Z,13.63
2018-03-14T12:46:59.306Z,13.20
2018-03-14T12:49:27.421Z,14.77
2018-03-14T12:51:55.508Z,12.43
2018-03-14T12:54:23.632Z,13.50
2018-03-14T12:56:51.785Z,11.80
2018-03-14T12:59:20.440Z,11.67
2018-03-14T13:01:49.547Z,14.00
2018-03-14T13:04:17.817Z,13.60
2018-03-14T13:06:47.303Z,15.87
2018-03-14T13:09:16.226Z,17.00
2018-03-14T13:11:44.399Z,14.30
2018-03-14T13:14:12.543Z,15.57
2018-03-14T13:16:40.654Z,12.50
2018-03-14T13:19:09.712Z,15.57
2018-03-14T13:21:38.606Z,28.87
2018-03-14T13:24:07.491Z,13.33
2018-03-14T13:26:35.743Z,12.30
2018-03-14T13:29:03.840Z,11.50
2018-03-14T13:31:32.719Z,12.70
2018-03-14T13:34:00.902Z,10.43
2018-03-14T13:36:29.820Z,9.63
2018-03-14T13:38:57.916Z,10.10
2018-03-14T13:41:26.955Z,10.30
2018-03-14T13:43:55.061Z,9.50
2018-03-14T13:46:23.155Z,9.40
2018-03-14T13:48:51.266Z,8.50
2018-03-14T13:51:20.284Z,9.97
2018-03-14T13:53:50.356Z,8.40
2018-03-14T13:56:18.554Z,8.10
2018-03-14T13:58:46.761Z,8.57
2018-03-14T14:01:15.036Z,8.40
2018-03-14T14:03:44.129Z,7.80
2018-03-14T14:06:13.319Z,7.20
2018-03-14T14:08:41.554Z,7.97
2018-03-14T14:11:09.661Z,7.17
2018-03-14T14:13:38.547Z,8.90
2018-03-14T14:16:06.752Z,7.63
2018-03-14T14:18:34.915Z,6.93
2018-03-14T14:21:03.124Z,9.20
2018-03-14T14:23:31.397Z,8.40
2018-03-14T14:26:01.492Z,9.97
2018-03-14T14:28:29.688Z,8.20
2018-03-14T14:30:57.903Z,7.57
2018-03-14T14:33:25.986Z,8.70
2018-03-14T14:35:54.403Z,9.00
2018-03-14T14:38:22.587Z,8.67
2018-03-14T14:40:50.875Z,9.63
2018-03-14T14:43:19.934Z,9.80
2018-03-14T14:45:48.086Z,7.30
2018-03-14T14:48:16.311Z,7.53
2018-03-14T14:50:44.509Z,9.53
2018-03-14T14:53:12.731Z,8.60
2018-03-14T14:55:41.606Z,7.77
2018-03-14T14:58:10.534Z,8.70
2018-03-14T15:00:38.700Z,8.97
2018-03-14T15:03:06.860Z,7.70
2018-03-14T15:05:35.877Z,7.53
2018-03-14T15:08:04.054Z,29.87
2018-03-14T15:10:32.409Z,13.57
2018-03-14T15:13:01.300Z,8.37
2018-03-14T15:15:30.279Z,7.67
2018-03-14T15:17:58.529Z,7.40
2018-03-14T15:20:26.874Z,6.57
2018-03-14T15:22:55.129Z,7.43
2018-03-14T15:25:25.040Z,6.83
2018-03-14T15:27:53.962Z,7.20
2018-03-14T15:30:22.425Z,7.17
2018-03-14T15:32:50.614Z,11.90
2018-03-14T15:35:19.794Z,8.53
2018-03-14T15:37:47.995Z,7.00
2018-03-14T15:40:16.885Z,7.50
2018-03-14T15:42:45.132Z,6.50
2018-03-14T15:45:13.240Z,6.20
2018-03-14T15:47:41.524Z,5.63
2018-03-14T15:50:09.936Z,6.40
2018-03-14T15:52:38.573Z,5.53
2018-03-14T15:55:06.699Z,5.93
2018-03-14T15:57:34.896Z,5.43
2018-03-14T16:00:03.002Z,5.53
2018-03-14T16:02:31.158Z,5.47
2018-03-14T16:04:59.265Z,5.90
2018-03-14T16:07:27.474Z,6.17
2018-03-14T16:09:56.502Z,5.93
2018-03-14T16:12:24.692Z,7.10
2018-03-14T16:14:53.512Z,9.73
2018-03-14T16:17:21.681Z,6.63
2018-03-14T16:19:49.783Z,7.40
2018-03-14T16:22:17.964Z,6.60
2018-03-14T16:24:46.838Z,5.80
2018-03-14T16:27:15.741Z,5.80
2018-03-14T16:29:45.562Z,9.83
2018-03-14T16:32:15.597Z,8.00
2018-03-14T16:34:43.716Z,6.20
2018-03-14T16:37:11.835Z,5.50
2018-03-14T16:39:40.708Z,7.07
2018-03-14T16:42:09.704Z,6.20
2018-03-14T16:44:38.451Z,5.80
2018-03-14T16:47:06.536Z,6.27
2018-03-14T16:49:34.762Z,6.93
2018-03-14T16:52:02.972Z,6.30
2018-03-14T16:54:40.898Z,6.50
2018-03-14T16:57:18.661Z,5.60
2018-03-14T17:00:03.413Z,6.27
2018-03-14T17:02:31.852Z,6.03
2018-03-14T17:05:00.082Z,5.13
2018-03-14T17:07:28.192Z,4.93
2018-03-14T17:09:56.393Z,5.03
2018-03-14T17:12:24.501Z,5.40
2018-03-14T17:17:53.713Z,6.20
2018-03-14T17:20:22.368Z,5.47
2018-03-14T17:22:50.516Z,6.40
2018-03-14T17:25:19.604Z,7.03
2018-03-14T17:27:47.768Z,6.87
2018-03-14T17:30:16.893Z,7.30
2018-03-14T17:32:45.049Z,6.33
2018-03-14T17:35:13.248Z,5.90
2018-03-14T17:37:42.425Z,5.37
2018-03-14T17:40:10.873Z,5.93
2018-03-14T17:42:39.014Z,6.60
2018-03-14T17:45:07.580Z,15.00
2018-03-14T17:47:36.579Z,20.27
2018-03-14T17:50:11.599Z,10.07
2018-03-14T17:52:39.793Z,7.70
2018-03-14T17:55:07.954Z,5.77
2018-03-14T17:57:36.855Z,5.50
2018-03-14T18:00:05.049Z,5.00
2018-03-14T18:02:33.138Z,5.60
2018-03-14T18:05:01.309Z,5.67
2018-03-14T18:07:29.432Z,5.67
2018-03-14T18:09:58.520Z,5.43
2018-03-14T18:12:27.464Z,9.97
2018-03-14T18:15:04.319Z,8.10
2018-03-14T18:17:32.572Z,6.00
2018-03-14T18:20:02.497Z,5.43
2018-03-14T18:22:31.784Z,5.10
2018-03-14T18:25:01.723Z,7.00
2018-03-14T18:27:30.908Z,5.70
2018-03-14T18:30:04.344Z,6.13
2018-03-14T18:32:37.054Z,6.30
2018-03-14T18:35:09.365Z,6.60
2018-03-14T18:37:38.246Z,6.57
2018-03-14T18:40:07.141Z,6.80
2018-03-14T18:42:35.322Z,6.40
2018-03-14T18:45:03.423Z,5.70
2018-03-14T18:47:31.538Z,5.73
2018-03-14T18:49:59.647Z,6.87
2018-03-14T18:52:27.893Z,6.87
2018-03-14T18:54:56.107Z,6.77
2018-03-14T18:57:24.267Z,6.13
2018-03-14T18:59:52.433Z,6.90
2018-03-14T19:02:21.591Z,12.47
2018-03-14T19:04:51.758Z,8.80
2018-03-14T19:07:19.921Z,12.90
2018-03-14T19:09:48.102Z,8.30
2018-03-14T19:12:16.726Z,7.10
2018-03-14T19:14:44.822Z,6.93
2018-03-14T19:17:12.895Z,6.90
2018-03-14T19:19:41.093Z,8.23
2018-03-14T19:22:09.286Z,6.63
2018-03-14T19:24:37.378Z,8.27
2018-03-14T19:27:05.523Z,7.20
2018-03-14T19:29:34.396Z,6.67
2018-03-14T19:32:02.581Z,8.83
2018-03-14T19:34:32.534Z,13.10
2018-03-14T19:37:00.700Z,10.73
2018-03-14T19:39:29.003Z,10.10
2018-03-14T19:41:57.945Z,7.53
2018-03-14T19:44:26.016Z,7.70
2018-03-14T19:46:54.157Z,7.20
2018-03-14T19:49:30.410Z,7.77
2018-03-14T19:51:58.621Z,7.00
2018-03-14T19:54:29.865Z,7.03
2018-03-14T19:56:58.166Z,7.37
2018-03-14T19:59:26.491Z,7.80
2018-03-14T20:01:54.860Z,7.10
2018-03-14T20:04:23.038Z,7.33
2018-03-14T20:06:51.707Z,7.83
2018-03-14T20:09:25.387Z,7.90
2018-03-14T20:11:56.797Z,7.67
2018-03-14T20:14:26.827Z,7.97
2018-03-14T20:16:55.040Z,7.20
2018-03-14T20:19:25.154Z,7.57
2018-03-14T20:21:54.218Z,8.10
2018-03-14T20:24:22.378Z,7.87
2018-03-14T20:26:50.488Z,7.17
2018-03-14T20:29:18.643Z,7.97
2018-03-14T20:31:47.540Z,7.50
2018-03-14T20:34:16.455Z,7.67
2018-03-14T20:36:44.538Z,8.10
2018-03-14T20:39:12.624Z,7.80
2018-03-14T20:41:40.830Z,8.60
2018-03-14T20:44:08.934Z,8.53
2018-03-14T20:46:37.069Z,9.07
2018-03-14T20:49:05.174Z,9.43
2018-03-14T20:51:33.312Z,9.53
2018-03-14T20:54:01.410Z,8.17
2018-03-14T20:56:30.302Z,9.70
2018-03-14T21:02:52.875Z,8.33
2018-03-14T21:11:59.550Z,9.10
2018-03-14T21:14:39.485Z,10.27
2018-03-14T21:17:27.294Z,9.30
2018-03-14T21:20:06.907Z,9.93
2018-03-14T21:22:39.715Z,9.20
2018-03-14T21:25:21.118Z,10.40
2018-03-14T21:27:56.871Z,10.33
2018-03-14T21:31:01.607Z,10.20
2018-03-14T21:33:54.118Z,9.70
2018-03-14T21:39:46.089Z,10.40
2018-03-14T21:42:15.437Z,10.93
2018-03-14T21:44:45.445Z,11.03
2018-03-14T21:49:49.733Z,11.60
2018-03-14T21:52:19.991Z,12.50
2018-03-14T21:54:48.436Z,12.13
2018-03-14T21:57:20.554Z,12.90
2018-03-14T21:59:49.821Z,11.90
2018-03-14T22:02:19.262Z,12.07
2018-03-14T22:04:48.170Z,13.27
2018-03-14T22:09:52.431Z,13.37
2018-03-14T22:12:22.494Z,14.93
2018-03-14T22:14:53.090Z,12.90
2018-03-14T22:17:24.128Z,13.00
2018-03-14T22:19:54.213Z,15.50
2018-03-14T22:22:24.458Z,14.50
2018-03-14T22:24:58.477Z,14.67
2018-03-14T22:27:26.687Z,13.77
2018-03-14T22:29:54.807Z,14.53
2018-03-14T22:32:22.957Z,14.63
2018-03-14T22:34:52.623Z,15.03
2018-03-14T22:37:20.731Z,14.03
2018-03-14T22:39:48.814Z,14.40
2018-03-14T22:42:16.910Z,14.40
2018-03-14T22:44:44.989Z,16.27
2018-03-14T22:47:13.440Z,14.70
2018-03-14T22:49:41.837Z,14.60
2018-03-14T22:52:09.923Z,15.23
2018-03-14T22:54:38.025Z,14.23
2018-03-14T22:57:06.121Z,15.10
2018-03-14T22:59:34.198Z,15.17
2018-03-14T23:02:02.634Z,14.90
2018-03-14T23:04:30.726Z,14.27
2018-03-14T23:06:59.550Z,15.93
2018-03-14T23:09:28.164Z,16.13
2018-03-14T23:11:56.577Z,14.43
2018-03-14T23:14:24.662Z,14.60
2018-03-14T23:16:52.744Z,15.00
2018-03-14T23:19:20.854Z,13.97
2018-03-14T23:21:49.055Z,13.57
2018-03-14T23:24:17.171Z,14.93
2018-03-14T23:26:45.257Z,14.37
2018-03-14T23:29:13.356Z,13.40
2018-03-14T23:31:41.440Z,14.03
2018-03-14T23:34:09.542Z,14.17
2018-03-14T23:36:37.638Z,14.13
2018-03-14T23:39:05.746Z,14.13
2018-03-14T23:41:33.843Z,15.43
2018-03-14T23:44:01.920Z,14.33
2018-03-14T23:46:30.068Z,14.87
2018-03-14T23:48:58.221Z,15.53
2018-03-14T23:51:27.066Z,13.40
2018-03-14T23:53:55.168Z,14.30
2018-03-14T23:56:23.292Z,14.30
2018-03-14T23:58:52.732Z,18.13
